Time;durP1;ratioP1;P1;durP2;ratioP2;P2;SDS_P1;SDS_P2;PMS_P1;PMS_P2;Temp;Humidity;BMP_temperature;BMP_pressure;BME280_temperature;BME280_humidity;BME280_pressure;Samples;Min_cycle;Max_cycle;Signal;HPM_P1;HPM_P2
2022/09/25 00:00:46;;;;;;;;;;;14.10;83.60;;;;;;5004515;28;19971;-82
2022/09/25 00:03:12;;;;;;;;;;;14.10;84.10;;;;;;5022416;28;19913;-82
2022/09/25 00:05:44;;;;;;;;;;;14.10;84.60;;;;;;5022023;28;19913;-80
2022/09/25 00:08:10;;;;;;;;;;;14.10;84.10;;;;;;4998767;28;19913;-83
2022/09/25 00:10:43;;;;;;;;;;;14.20;83.30;;;;;;5006505;28;19921;-82
2022/09/25 00:13:09;;;;;;;;;;;14.20;83.70;;;;;;5021281;28;19984;-82
2022/09/25 00:15:35;;;;;;;;;;;14.10;83.30;;;;;;5023372;28;20008;-82
2022/09/25 00:18:00;;;;;;;;;;;14.10;83.70;;;;;;5008939;28;19917;-82
2022/09/25 00:20:26;;;;;;;;;;;14.20;83.30;;;;;;5004642;28;19920;-82
2022/09/25 00:22:52;;;;;;;;;;;14.10;84.30;;;;;;5023411;28;20773;-82
2022/09/25 00:25:19;;;;;;;;;;;14.10;83.60;;;;;;5008547;28;19913;-81
2022/09/25 00:27:44;;;;;;;;;;;14.10;83.50;;;;;;5024388;28;20051;-81
2022/09/25 00:30:11;;;;;;;;;;;14.10;83.40;;;;;;5034327;28;19949;-80
2022/09/25 00:32:36;;;;;;;;;;;14.10;84.10;;;;;;5015486;28;19944;-80
2022/09/25 00:35:02;;;;;;;;;;;14.00;84.30;;;;;;5018816;28;19925;-81
2022/09/25 00:37:28;;;;;;;;;;;14.00;84.30;;;;;;5022747;28;19967;-80
2022/09/25 00:39:53;;;;;;;;;;;14.10;84.10;;;;;;5019612;28;19956;-80
2022/09/25 00:42:20;;;;;;;;;;;14.00;84.40;;;;;;5007577;28;19920;-80
2022/09/25 00:44:51;;;;;;;;;;;14.30;83.30;;;;;;5007473;28;19921;-81
2022/09/25 00:47:19;;;;;;;;;;;14.10;83.80;;;;;;5023962;28;19944;-81
2022/09/25 00:49:45;;;;;;;;;;;14.00;84.30;;;;;;5001656;28;20000;-81
2022/09/25 00:52:12;;;;;;;;;;;13.90;84.40;;;;;;5021875;28;19913;-81
2022/09/25 00:55:00;;;;;;;;;;;14.00;84.40;;;;;;5008194;28;20546;-81
2022/09/25 00:57:28;;;;;;;;;;;14.00;84.60;;;;;;5006584;28;20440;-81
2022/09/25 01:00:00;;;;;;;;;;;14.00;84.20;;;;;;5020696;28;19943;-80
2022/09/25 01:02:27;;;;;;;;;;;14.00;84.60;;;;;;5011331;28;19913;-81
2022/09/25 01:04:55;;;;;;;;;;;14.00;84.40;;;;;;5010764;28;19913;-80
2022/09/25 01:07:20;;;;;;;;;;;14.10;84.30;;;;;;5022863;28;20833;-80
2022/09/25 01:09:46;;;;;;;;;;;14.20;83.60;;;;;;5006324;28;19928;-80
2022/09/25 01:12:11;;;;;;;;;;;14.10;83.80;;;;;;5006819;28;19913;-80
2022/09/25 01:14:38;;;;;;;;;;;14.00;84.30;;;;;;5002623;28;19920;-80
2022/09/25 01:17:03;;;;;;;;;;;14.00;84.10;;;;;;5021784;28;19913;-81
2022/09/25 01:19:48;;;;;;;;;;;13.90;84.80;;;;;;5022468;28;19992;-80
2022/09/25 01:22:35;;;;;;;;;;;14.00;84.60;;;;;;5005314;28;19945;-80
2022/09/25 01:25:08;;;;;;;;;;;13.80;85.20;;;;;;5002850;28;19913;-81
2022/09/25 01:27:34;;;;;;;;;;;13.90;85.20;;;;;;5022347;28;21922;-80
2022/09/25 01:30:02;;;;;;;;;;;14.00;85.30;;;;;;5025806;28;20049;-80
2022/09/25 01:32:48;;;;;;;;;;;13.80;85.20;;;;;;5011590;28;19913;-80
2022/09/25 01:35:36;;;;;;;;;;;13.80;86.00;;;;;;5008062;28;20297;-80
2022/09/25 01:38:18;;;;;;;;;;;13.60;86.30;;;;;;5003993;28;19940;-80
2022/09/25 01:40:57;;;;;;;;;;;13.60;86.50;;;;;;5023785;28;20368;-80
2022/09/25 01:43:35;;;;;;;;;;;13.60;86.80;;;;;;5025731;28;20040;-80
2022/09/25 01:46:02;;;;;;;;;;;13.60;86.20;;;;;;5021317;28;19967;-81
2022/09/25 01:48:30;;;;;;;;;;;13.70;85.00;;;;;;5026369;28;19909;-80
2022/09/25 01:51:04;;;;;;;;;;;13.60;85.40;;;;;;5045645;28;20003;-81
2022/09/25 01:53:51;;;;;;;;;;;13.50;86.30;;;;;;5013789;28;19999;-81
2022/09/25 01:56:31;;;;;;;;;;;13.50;86.60;;;;;;5025700;28;19917;-80
2022/09/25 01:59:14;;;;;;;;;;;13.50;86.30;;;;;;5006486;28;19921;-81
2022/09/25 02:01:41;;;;;;;;;;;13.70;85.30;;;;;;5006603;28;19913;-81
2022/09/25 02:04:28;;;;;;;;;;;13.70;85.70;;;;;;5028594;28;19960;-81
2022/09/25 02:06:54;;;;;;;;;;;13.60;86.10;;;;;;5030004;28;20506;-81
2022/09/25 02:09:26;;;;;;;;;;;13.90;84.10;;;;;;5020540;28;19920;-80
2022/09/25 02:11:54;;;;;;;;;;;13.80;84.80;;;;;;5009327;28;19918;-80
2022/09/25 02:14:26;;;;;;;;;;;13.70;85.40;;;;;;5026567;28;19924;-80
2022/09/25 02:16:54;;;;;;;;;;;13.70;85.00;;;;;;5009564;28;19917;-81
2022/09/25 02:22:19;;;;;;;;;;;13.60;85.60;;;;;;5024936;28;19967;-81
2022/09/25 02:24:57;;;;;;;;;;;13.60;85.60;;;;;;5004058;28;20464;-81
2022/09/25 02:27:24;;;;;;;;;;;13.60;86.00;;;;;;5023265;28;19956;-81
2022/09/25 02:29:51;;;;;;;;;;;13.60;86.40;;;;;;5012431;28;19913;-81
2022/09/25 02:32:19;;;;;;;;;;;13.60;85.30;;;;;;5007125;28;19978;-81
2022/09/25 02:34:44;;;;;;;;;;;13.70;84.70;;;;;;5006269;28;19925;-82
2022/09/25 02:37:11;;;;;;;;;;;13.90;83.40;;;;;;5020342;28;20435;-82
2022/09/25 02:39:36;;;;;;;;;;;13.70;84.10;;;;;;4998073;28;19925;-81
2022/09/25 02:42:02;;;;;;;;;;;13.60;84.90;;;;;;5006194;28;19927;-82
2022/09/25 02:44:36;;;;;;;;;;;13.60;84.00;;;;;;5007298;28;20074;-82
2022/09/25 02:47:13;;;;;;;;;;;13.50;84.60;;;;;;5007060;28;19917;-82
2022/09/25 02:49:58;;;;;;;;;;;13.60;84.40;;;;;;5006838;28;20587;-81
2022/09/25 02:52:23;;;;;;;;;;;13.60;84.70;;;;;;5027777;28;19944;-82
2022/09/25 02:54:55;;;;;;;;;;;13.60;84.00;;;;;;5008028;28;19960;-81
2022/09/25 02:57:41;;;;;;;;;;;13.60;84.00;;;;;;5003947;28;19919;-82
2022/09/25 03:00:07;;;;;;;;;;;13.50;84.30;;;;;;5007975;28;20365;-82
2022/09/25 03:02:34;;;;;;;;;;;13.50;84.00;;;;;;5001830;28;20424;-83
2022/09/25 03:05:00;;;;;;;;;;;13.50;84.10;;;;;;5022294;28;19924;-83
2022/09/25 03:07:25;;;;;;;;;;;13.50;84.10;;;;;;5007721;28;19921;-83
2022/09/25 03:09:52;;;;;;;;;;;13.60;83.00;;;;;;5002408;28;19924;-83
2022/09/25 03:12:18;;;;;;;;;;;13.50;84.30;;;;;;5003198;28;19960;-83
2022/09/25 03:14:43;;;;;;;;;;;13.60;83.30;;;;;;5008398;28;19964;-82
2022/09/25 03:17:10;;;;;;;;;;;13.40;83.90;;;;;;5024637;28;19913;-83
2022/09/25 03:19:35;;;;;;;;;;;13.50;83.70;;;;;;5007950;28;20290;-82
2022/09/25 03:22:01;;;;;;;;;;;13.50;83.70;;;;;;5007217;28;19921;-83
2022/09/25 03:24:27;;;;;;;;;;;13.60;82.60;;;;;;5022685;28;20004;-83
2022/09/25 03:26:52;;;;;;;;;;;13.50;83.30;;;;;;5019241;28;20601;-82
2022/09/25 03:29:19;;;;;;;;;;;13.50;83.80;;;;;;5008549;28;19923;-83
2022/09/25 03:31:44;;;;;;;;;;;13.40;84.00;;;;;;5009881;28;19913;-83
2022/09/25 03:34:10;;;;;;;;;;;13.50;84.00;;;;;;5023290;28;19991;-82
2022/09/25 03:36:36;;;;;;;;;;;13.60;83.40;;;;;;5008350;28;19918;-83
2022/09/25 03:39:02;;;;;;;;;;;13.60;82.30;;;;;;5009086;28;19913;-82
2022/09/25 03:41:29;;;;;;;;;;;13.60;82.10;;;;;;5021172;28;21057;-82
2022/09/25 03:43:55;;;;;;;;;;;13.50;82.90;;;;;;5023098;28;19943;-84
2022/09/25 03:46:24;;;;;;;;;;;13.60;82.30;;;;;;5026268;28;19921;-83
2022/09/25 03:48:51;;;;;;;;;;;13.50;82.60;;;;;;5005725;28;19926;-83
2022/09/25 03:51:18;;;;;;;;;;;13.50;82.00;;;;;;5016434;28;19921;-83
2022/09/25 03:53:43;;;;;;;;;;;13.30;83.40;;;;;;5009716;28;20420;-84
2022/09/25 03:56:13;;;;;;;;;;;13.20;83.50;;;;;;5014773;28;19925;-84
2022/09/25 03:58:39;;;;;;;;;;;13.20;82.90;;;;;;5008174;28;19913;-82
2022/09/25 04:01:05;;;;;;;;;;;13.10;83.40;;;;;;5021313;28;19917;-83
2022/09/25 04:03:31;;;;;;;;;;;13.10;83.80;;;;;;5007828;28;19917;-83
2022/09/25 04:05:58;;;;;;;;;;;13.30;82.80;;;;;;5005440;28;20292;-84
2022/09/25 04:08:25;;;;;;;;;;;13.30;82.50;;;;;;5007867;28;19917;-84
2022/09/25 04:11:00;;;;;;;;;;;13.10;83.20;;;;;;5024415;28;19917;-83
2022/09/25 04:13:30;;;;;;;;;;;13.00;83.80;;;;;;5011946;28;19921;-83
2022/09/25 04:15:56;;;;;;;;;;;12.90;84.20;;;;;;5024889;28;19913;-83
2022/09/25 04:18:22;;;;;;;;;;;12.90;84.20;;;;;;5010512;28;19923;-84
2022/09/25 04:20:48;;;;;;;;;;;12.90;84.70;;;;;;5009319;28;19928;-83
2022/09/25 04:23:13;;;;;;;;;;;13.00;84.20;;;;;;5008334;28;19917;-82
2022/09/25 04:25:39;;;;;;;;;;;12.90;84.70;;;;;;5023630;28;19921;-84
2022/09/25 04:28:06;;;;;;;;;;;13.00;84.20;;;;;;5017429;28;20606;-83
2022/09/25 04:30:32;;;;;;;;;;;13.00;83.80;;;;;;5007637;28;20099;-83
2022/09/25 04:35:41;;;;;;;;;;;13.00;83.40;;;;;;5021398;28;19932;-84
2022/09/25 04:38:08;;;;;;;;;;;13.00;83.00;;;;;;5019172;28;19913;-83
2022/09/25 04:40:34;;;;;;;;;;;12.80;83.80;;;;;;5005830;28;19928;-83
2022/09/25 04:43:00;;;;;;;;;;;13.00;82.90;;;;;;5012963;28;19913;-83
2022/09/25 04:45:26;;;;;;;;;;;12.90;83.00;;;;;;5023507;28;19956;-83
2022/09/25 04:47:53;;;;;;;;;;;12.90;83.30;;;;;;5005936;28;19967;-82
2022/09/25 04:50:19;;;;;;;;;;;12.80;84.00;;;;;;5018826;28;20395;-83
2022/09/25 04:52:44;;;;;;;;;;;12.80;83.50;;;;;;5003969;28;19956;-83
2022/09/25 04:55:10;;;;;;;;;;;12.70;83.40;;;;;;5006527;28;19963;-82
2022/09/25 04:57:35;;;;;;;;;;;12.70;83.50;;;;;;5008113;28;20393;-82
2022/09/25 05:00:01;;;;;;;;;;;12.80;83.00;;;;;;5004488;28;19909;-82
2022/09/25 05:02:27;;;;;;;;;;;12.70;83.00;;;;;;5020115;28;19919;-82
2022/09/25 05:04:52;;;;;;;;;;;12.70;82.90;;;;;;5016736;28;19921;-82
2022/09/25 05:07:18;;;;;;;;;;;12.60;83.60;;;;;;5004179;28;19913;-83
2022/09/25 05:09:43;;;;;;;;;;;12.50;84.30;;;;;;5001643;28;20012;-82
2022/09/25 05:12:09;;;;;;;;;;;12.40;84.80;;;;;;5021213;28;19920;-82
2022/09/25 05:14:34;;;;;;;;;;;12.40;84.60;;;;;;5004706;28;19995;-82
2022/09/25 05:17:00;;;;;;;;;;;12.30;85.10;;;;;;5004346;28;19913;-81
2022/09/25 05:19:26;;;;;;;;;;;12.20;85.60;;;;;;5003138;28;19951;-82
2022/09/25 05:21:52;;;;;;;;;;;12.20;85.80;;;;;;5001042;28;19975;-82
2022/09/25 05:24:18;;;;;;;;;;;12.20;85.80;;;;;;5020737;28;20004;-82
2022/09/25 05:26:43;;;;;;;;;;;12.20;85.40;;;;;;5021001;28;19920;-82
2022/09/25 05:29:09;;;;;;;;;;;12.30;85.20;;;;;;5006989;28;19913;-81
2022/09/25 05:31:35;;;;;;;;;;;12.20;85.10;;;;;;5001352;28;19944;-82
2022/09/25 05:34:01;;;;;;;;;;;12.20;85.40;;;;;;5010834;28;19921;-82
2022/09/25 05:36:27;;;;;;;;;;;12.10;85.70;;;;;;5027146;28;19901;-82
2022/09/25 05:38:53;;;;;;;;;;;12.10;85.60;;;;;;5039638;28;19972;-83
2022/09/25 05:41:18;;;;;;;;;;;12.20;85.30;;;;;;5010450;28;19960;-83
2022/09/25 05:43:47;;;;;;;;;;;12.10;85.40;;;;;;5005412;28;20285;-82
2022/09/25 05:46:14;;;;;;;;;;;12.20;85.40;;;;;;5004179;28;19944;-82
2022/09/25 05:48:39;;;;;;;;;;;12.10;85.10;;;;;;5010507;28;19914;-80
2022/09/25 05:51:05;;;;;;;;;;;12.10;85.10;;;;;;5006360;28;19920;-83
2022/09/25 05:53:30;;;;;;;;;;;12.10;85.00;;;;;;5021813;28;19979;-83
2022/09/25 05:56:00;;;;;;;;;;;12.10;84.60;;;;;;5007045;28;19917;-83
2022/09/25 05:58:27;;;;;;;;;;;12.00;85.00;;;;;;5007638;28;19925;-83
2022/09/25 06:00:53;;;;;;;;;;;12.00;85.30;;;;;;5003571;28;20565;-84
2022/09/25 06:03:19;;;;;;;;;;;12.10;84.80;;;;;;5006384;28;20284;-82
2022/09/25 06:05:45;;;;;;;;;;;12.10;84.40;;;;;;5025594;28;19913;-83
2022/09/25 06:08:10;;;;;;;;;;;12.10;84.40;;;;;;5021630;28;19928;-83
2022/09/25 06:10:36;;;;;;;;;;;12.10;84.30;;;;;;5006920;28;20399;-79
2022/09/25 06:13:03;;;;;;;;;;;12.00;84.80;;;;;;5006017;28;19914;-80
2022/09/25 06:15:36;;;;;;;;;;;12.00;85.10;;;;;;5009179;28;19962;-82
2022/09/25 06:18:03;;;;;;;;;;;12.00;85.30;;;;;;5002850;28;19913;-81
2022/09/25 06:20:28;;;;;;;;;;;12.00;85.50;;;;;;5031998;28;20004;-79
2022/09/25 06:22:54;;;;;;;;;;;12.00;85.20;;;;;;5008277;28;19953;-78
2022/09/25 06:25:21;;;;;;;;;;;12.10;85.20;;;;;;5012700;28;19963;-79
2022/09/25 06:27:47;;;;;;;;;;;12.00;85.10;;;;;;5008130;28;19949;-81
2022/09/25 06:30:12;;;;;;;;;;;11.90;85.40;;;;;;5014753;28;19922;-81
2022/09/25 06:32:38;;;;;;;;;;;12.00;85.00;;;;;;5009292;28;19913;-82
2022/09/25 06:35:03;;;;;;;;;;;12.00;85.30;;;;;;5029450;28;19939;-82
2022/09/25 06:37:29;;;;;;;;;;;12.00;85.30;;;;;;5009712;28;19913;-82
2022/09/25 06:39:54;;;;;;;;;;;11.90;85.60;;;;;;5012264;28;20633;-82
2022/09/25 06:42:20;;;;;;;;;;;11.90;85.70;;;;;;5010228;28;20003;-82
2022/09/25 06:44:48;;;;;;;;;;;11.90;86.10;;;;;;5011158;28;19924;-81
2022/09/25 06:47:13;;;;;;;;;;;12.00;85.80;;;;;;5023023;28;19921;-81
2022/09/25 06:49:39;;;;;;;;;;;12.10;85.30;;;;;;5036108;28;19909;-81
2022/09/25 06:52:04;;;;;;;;;;;12.10;85.40;;;;;;5017582;28;19913;-81
2022/09/25 06:54:30;;;;;;;;;;;12.10;85.40;;;;;;5011938;28;21527;-80
2022/09/25 06:56:55;;;;;;;;;;;12.20;84.60;;;;;;5009314;28;19920;-81
2022/09/25 06:59:21;;;;;;;;;;;12.50;82.90;;;;;;5011903;28;20809;-79
2022/09/25 07:01:46;;;;;;;;;;;12.30;84.00;;;;;;5003602;28;19922;-82
2022/09/25 07:04:12;;;;;;;;;;;12.30;83.80;;;;;;5008581;28;19936;-82
2022/09/25 07:06:37;;;;;;;;;;;12.50;82.70;;;;;;5041077;28;19917;-81
2022/09/25 07:09:03;;;;;;;;;;;12.60;82.70;;;;;;5029479;28;20366;-82
2022/09/25 07:11:30;;;;;;;;;;;12.60;81.90;;;;;;5015731;28;19925;-82
2022/09/25 07:13:55;;;;;;;;;;;12.60;82.70;;;;;;5012878;28;20397;-83
2022/09/25 07:16:25;;;;;;;;;;;12.50;82.80;;;;;;5021652;28;19917;-80
2022/09/25 07:18:56;;;;;;;;;;;12.60;82.70;;;;;;5019720;28;19913;-78
2022/09/25 07:21:23;;;;;;;;;;;12.60;82.90;;;;;;5007555;28;20022;-78
2022/09/25 07:23:49;;;;;;;;;;;12.60;82.80;;;;;;5020922;28;19967;-78
2022/09/25 07:26:21;;;;;;;;;;;12.70;82.80;;;;;;5003172;28;19964;-76
2022/09/25 07:28:47;;;;;;;;;;;12.60;82.40;;;;;;5006048;28;19983;-79
2022/09/25 07:31:14;;;;;;;;;;;12.80;81.80;;;;;;5007618;28;19917;-79
2022/09/25 07:33:40;;;;;;;;;;;13.00;80.40;;;;;;5026178;28;19940;-78
2022/09/25 07:36:07;;;;;;;;;;;13.10;80.30;;;;;;5000398;28;20377;-77
2022/09/25 07:38:35;;;;;;;;;;;13.00;80.40;;;;;;5023634;28;22214;-77
2022/09/25 07:41:05;;;;;;;;;;;13.00;80.80;;;;;;5017706;28;19921;-78
2022/09/25 07:43:31;;;;;;;;;;;13.00;80.90;;;;;;5008285;28;19956;-77
2022/09/25 07:45:57;;;;;;;;;;;13.10;80.50;;;;;;5002282;28;19928;-78
2022/09/25 07:48:23;;;;;;;;;;;13.40;78.90;;;;;;4999525;28;19917;-77
2022/09/25 07:50:49;;;;;;;;;;;13.50;78.60;;;;;;5010605;28;19917;-78
2022/09/25 07:53:17;;;;;;;;;;;13.40;79.10;;;;;;5002509;28;19940;-78
2022/09/25 07:55:43;;;;;;;;;;;13.30;79.80;;;;;;5003242;28;19917;-78
2022/09/25 07:58:09;;;;;;;;;;;13.50;78.30;;;;;;5023334;28;20440;-79
2022/09/25 08:00:34;;;;;;;;;;;13.60;77.40;;;;;;5011043;28;19932;-78
2022/09/25 08:02:59;;;;;;;;;;;13.50;77.10;;;;;;5020124;28;19916;-78
2022/09/25 08:05:26;;;;;;;;;;;13.50;76.90;;;;;;5001596;28;19913;-78
2022/09/25 08:07:52;;;;;;;;;;;13.30;78.10;;;;;;5002538;28;19917;-79
2022/09/25 08:10:17;;;;;;;;;;;13.30;78.50;;;;;;5016689;28;19929;-78
2022/09/25 08:12:43;;;;;;;;;;;13.20;78.70;;;;;;5016025;28;19917;-79
2022/09/25 08:15:09;;;;;;;;;;;13.20;79.10;;;;;;5017930;28;19917;-79
2022/09/25 08:17:35;;;;;;;;;;;13.20;79.60;;;;;;5018556;28;19921;-78
2022/09/25 08:20:00;;;;;;;;;;;13.30;79.00;;;;;;5003517;28;20365;-78
2022/09/25 08:22:26;;;;;;;;;;;13.40;78.40;;;;;;5018464;28;20389;-79
2022/09/25 08:24:52;;;;;;;;;;;13.30;78.10;;;;;;5003345;28;19921;-81
2022/09/25 08:27:17;;;;;;;;;;;13.60;76.70;;;;;;5008062;28;19966;-82
2022/09/25 08:29:43;;;;;;;;;;;13.60;76.60;;;;;;5000299;28;19913;-81
2022/09/25 08:32:08;;;;;;;;;;;13.40;77.00;;;;;;5029200;23;20338;-79
2022/09/25 08:34:35;;;;;;;;;;;13.40;76.80;;;;;;5022574;28;20028;-80
2022/09/25 08:37:01;;;;;;;;;;;13.50;77.00;;;;;;5033208;28;19928;-79
2022/09/25 08:39:26;;;;;;;;;;;13.70;76.90;;;;;;5030470;28;19913;-79
2022/09/25 08:41:53;;;;;;;;;;;13.60;77.60;;;;;;5025746;28;19964;-79
2022/09/25 08:44:29;;;;;;;;;;;13.80;76.80;;;;;;5004072;28;20352;-79
2022/09/25 08:50:09;;;;;;;;;;;14.00;76.50;;;;;;5029199;28;20015;-78
2022/09/25 08:52:35;;;;;;;;;;;14.10;75.50;;;;;;5029568;28;19932;-79
2022/09/25 08:55:00;;;;;;;;;;;14.10;76.00;;;;;;5030401;28;20389;-80
2022/09/25 08:57:33;;;;;;;;;;;14.30;74.30;;;;;;5022970;28;19952;-78
2022/09/25 09:00:09;;;;;;;;;;;14.20;73.70;;;;;;5007524;28;19921;-78
2022/09/25 09:02:37;;;;;;;;;;;14.20;75.30;;;;;;5016973;28;20005;-79
2022/09/25 09:05:04;;;;;;;;;;;14.50;72.80;;;;;;5018542;28;19928;-78
2022/09/25 09:07:41;;;;;;;;;;;14.50;72.90;;;;;;5005279;28;20008;-78
2022/09/25 09:10:19;;;;;;;;;;;14.60;72.90;;;;;;5008493;28;20541;-78
2022/09/25 09:12:47;;;;;;;;;;;14.70;69.50;;;;;;5025640;28;20018;-77
2022/09/25 09:15:15;;;;;;;;;;;14.70;69.70;;;;;;5025426;28;19932;-80
2022/09/25 09:17:41;;;;;;;;;;;14.50;69.50;;;;;;5034141;28;19979;-79
2022/09/25 09:20:13;;;;;;;;;;;14.60;69.40;;;;;;5018316;28;19914;-79
2022/09/25 09:22:41;;;;;;;;;;;14.60;69.70;;;;;;5042130;28;19952;-79
2022/09/25 09:25:14;;;;;;;;;;;14.80;68.80;;;;;;5020618;28;20050;-78
2022/09/25 09:27:45;;;;;;;;;;;15.10;67.40;;;;;;5015181;28;19919;-79
2022/09/25 09:30:11;;;;;;;;;;;15.20;67.30;;;;;;5041678;28;19966;-80
2022/09/25 09:32:42;;;;;;;;;;;15.20;67.50;;;;;;5012950;28;20343;-80
2022/09/25 09:35:29;;;;;;;;;;;15.30;67.00;;;;;;5027603;28;19925;-78
2022/09/25 09:37:55;;;;;;;;;;;15.30;68.10;;;;;;5020446;28;20003;-78
2022/09/25 09:40:20;;;;;;;;;;;15.30;68.60;;;;;;5014810;28;20067;-79
2022/09/25 09:43:05;;;;;;;;;;;15.30;67.10;;;;;;5016102;28;21200;-78
2022/09/25 09:45:43;;;;;;;;;;;15.00;67.20;;;;;;5029428;28;19914;-83
2022/09/25 09:48:13;;;;;;;;;;;14.80;68.60;;;;;;5021728;28;19971;-78
2022/09/25 09:50:48;;;;;;;;;;;14.80;68.60;;;;;;5011363;28;19917;-80
2022/09/25 09:53:16;;;;;;;;;;;14.80;67.60;;;;;;5019285;28;20343;-78
2022/09/25 09:55:44;;;;;;;;;;;14.70;67.50;;;;;;5001311;28;19997;-77
2022/09/25 09:58:30;;;;;;;;;;;14.60;69.10;;;;;;5017084;28;19941;-78
2022/09/25 10:00:57;;;;;;;;;;;14.60;67.70;;;;;;5006274;28;19936;-79
2022/09/25 10:03:24;;;;;;;;;;;14.80;66.30;;;;;;5023772;28;19913;-79
2022/09/25 10:05:56;;;;;;;;;;;14.80;64.40;;;;;;5018971;28;19917;-77
2022/09/25 10:08:25;;;;;;;;;;;14.90;63.60;;;;;;5033575;28;19910;-78
2022/09/25 10:10:54;;;;;;;;;;;14.90;65.60;;;;;;5021289;28;19913;-78
2022/09/25 10:13:24;;;;;;;;;;;15.00;62.80;;;;;;5013058;28;20392;-77
2022/09/25 10:15:59;;;;;;;;;;;15.10;61.60;;;;;;5016516;28;19921;-77
2022/09/25 10:18:28;;;;;;;;;;;15.30;62.20;;;;;;5014980;28;19919;-78
2022/09/25 10:21:07;;;;;;;;;;;15.20;63.00;;;;;;5039009;28;19913;-78
2022/09/25 10:23:32;;;;;;;;;;;15.10;63.40;;;;;;5020216;28;19913;-78
2022/09/25 10:25:58;;;;;;;;;;;15.10;62.70;;;;;;5023045;28;20266;-78
2022/09/25 10:28:25;;;;;;;;;;;15.30;63.10;;;;;;5023444;28;20408;-78
2022/09/25 10:30:51;;;;;;;;;;;15.40;63.50;;;;;;5040730;28;19909;-78
2022/09/25 10:33:19;;;;;;;;;;;15.60;64.70;;;;;;5035005;28;19928;-78
2022/09/25 10:35:45;;;;;;;;;;;15.60;63.90;;;;;;5030915;28;19974;-78
2022/09/25 10:38:28;;;;;;;;;;;15.70;62.20;;;;;;5014687;28;19909;-78
2022/09/25 10:41:17;;;;;;;;;;;15.70;63.40;;;;;;5019178;28;19913;-78
2022/09/25 10:43:59;;;;;;;;;;;15.60;64.40;;;;;;5002284;28;19916;-78
2022/09/25 10:50:09;;;;;;;;;;;15.30;63.60;;;;;;5014855;28;19949;-78
2022/09/25 10:52:07;;;;;;;;;;;15.20;61.40;;;;;;5028949;28;19924;-78
2022/09/25 10:54:33;;;;;;;;;;;15.30;62.10;;;;;;5024251;28;20007;-78
2022/09/25 10:56:59;;;;;;;;;;;15.50;61.10;;;;;;5037814;28;19935;-77
2022/09/25 10:59:26;;;;;;;;;;;15.60;60.80;;;;;;5008713;28;20254;-78
2022/09/25 11:01:53;;;;;;;;;;;15.80;60.90;;;;;;5018268;28;19939;-79
2022/09/25 11:04:21;;;;;;;;;;;15.90;59.70;;;;;;5017759;28;19946;-78
2022/09/25 11:06:51;;;;;;;;;;;16.00;60.20;;;;;;5016149;28;20002;-78
2022/09/25 11:09:18;;;;;;;;;;;16.10;59.10;;;;;;5032522;28;19984;-78
2022/09/25 11:11:45;;;;;;;;;;;16.10;60.00;;;;;;5030506;28;19919;-78
2022/09/25 11:14:21;;;;;;;;;;;16.20;61.00;;;;;;5026696;28;19935;-78
2022/09/25 11:16:57;;;;;;;;;;;16.10;60.40;;;;;;5019270;28;19924;-78
2022/09/25 11:19:30;;;;;;;;;;;16.00;61.80;;;;;;5041773;28;19916;-78
2022/09/25 11:21:58;;;;;;;;;;;16.00;57.70;;;;;;5007758;28;19939;-78
2022/09/25 11:24:43;;;;;;;;;;;15.90;57.50;;;;;;5042913;28;20315;-78
2022/09/25 11:27:17;;;;;;;;;;;15.90;58.80;;;;;;5021690;28;20444;-78
2022/09/25 11:30:01;;;;;;;;;;;16.10;58.10;;;;;;5014103;28;20411;-79
2022/09/25 11:32:28;;;;;;;;;;;16.20;59.40;;;;;;5003903;28;20381;-79
2022/09/25 11:34:53;;;;;;;;;;;16.30;57.50;;;;;;4995150;28;19974;-78
2022/09/25 11:37:21;;;;;;;;;;;16.40;57.70;;;;;;5011892;28;20467;-78
2022/09/25 11:42:42;;;;;;;;;;;16.50;57.80;;;;;;5029209;28;19970;-78
2022/09/25 11:45:18;;;;;;;;;;;16.50;56.80;;;;;;5027283;28;20067;-78
2022/09/25 11:47:52;;;;;;;;;;;16.30;57.00;;;;;;5009419;28;19910;-78
2022/09/25 11:50:19;;;;;;;;;;;16.10;55.80;;;;;;5001756;28;20332;-78
2022/09/25 11:52:44;;;;;;;;;;;15.90;54.90;;;;;;5013823;28;19917;-77
2022/09/25 11:55:18;;;;;;;;;;;15.80;56.00;;;;;;5038394;28;19917;-78
2022/09/25 11:57:54;;;;;;;;;;;15.70;56.30;;;;;;5031941;28;19917;-78
2022/09/25 12:00:27;;;;;;;;;;;15.50;58.10;;;;;;5006934;28;19917;-78
2022/09/25 12:03:12;;;;;;;;;;;15.60;57.50;;;;;;5016800;28;20219;-78
2022/09/25 12:05:44;;;;;;;;;;;15.80;56.40;;;;;;5012779;28;19920;-78
2022/09/25 12:08:27;;;;;;;;;;;16.00;56.80;;;;;;5032380;28;19909;-78
2022/09/25 12:11:00;;;;;;;;;;;16.20;57.00;;;;;;5023135;28;19913;-78
2022/09/25 12:13:26;;;;;;;;;;;16.20;57.20;;;;;;5010051;28;20005;-78
2022/09/25 12:15:57;;;;;;;;;;;16.30;56.20;;;;;;5040702;28;19913;-78
2022/09/25 12:18:32;;;;;;;;;;;16.10;57.80;;;;;;5015070;28;19924;-78
2022/09/25 12:21:02;;;;;;;;;;;16.00;55.90;;;;;;5036001;28;19920;-78
2022/09/25 12:23:27;;;;;;;;;;;16.00;53.60;;;;;;5009826;28;19921;-79
2022/09/25 12:25:53;;;;;;;;;;;16.00;54.40;;;;;;5040250;28;19913;-78
2022/09/25 12:28:19;;;;;;;;;;;16.00;54.90;;;;;;5052713;28;19919;-78
2022/09/25 12:30:50;;;;;;;;;;;16.00;54.10;;;;;;5027602;28;20421;-78
2022/09/25 12:33:22;;;;;;;;;;;15.80;55.30;;;;;;4954723;28;1728506;-78
2022/09/25 12:35:47;;;;;;;;;;;15.80;56.00;;;;;;5037393;28;20388;-78
2022/09/25 12:38:16;;;;;;;;;;;15.80;55.60;;;;;;5025422;28;19909;-78
2022/09/25 12:40:42;;;;;;;;;;;16.10;53.70;;;;;;5029010;28;19921;-78
2022/09/25 12:43:10;;;;;;;;;;;16.20;54.20;;;;;;5044840;28;19921;-78
2022/09/25 12:45:42;;;;;;;;;;;16.40;54.30;;;;;;5046554;28;19917;-79
2022/09/25 12:48:21;;;;;;;;;;;16.50;53.20;;;;;;5037241;28;19981;-78
2022/09/25 12:51:24;;;;;;;;;;;16.50;52.40;;;;;;5020290;28;20001;-78
2022/09/25 12:54:01;;;;;;;;;;;16.40;53.60;;;;;;4929384;29;19915;-78
2022/09/25 12:56:32;;;;;;;;;;;16.40;53.40;;;;;;4913328;29;20355;-78
2022/09/25 12:59:04;;;;;;;;;;;16.50;51.90;;;;;;4974348;28;19913;-77
2022/09/25 13:01:38;;;;;;;;;;;16.50;52.40;;;;;;5030098;28;19913;-78
2022/09/25 13:04:04;;;;;;;;;;;16.60;50.50;;;;;;5017048;28;19919;-78
2022/09/25 13:06:42;;;;;;;;;;;16.80;51.70;;;;;;5032153;28;19913;-77
2022/09/25 13:09:10;;;;;;;;;;;16.90;51.90;;;;;;5037719;28;20619;-79
2022/09/25 13:11:43;;;;;;;;;;;17.00;52.30;;;;;;5035994;28;19959;-78
2022/09/25 13:14:13;;;;;;;;;;;17.10;52.30;;;;;;5032555;28;19913;-78
2022/09/25 13:16:39;;;;;;;;;;;17.20;51.90;;;;;;5019087;28;20211;-79
2022/09/25 13:19:10;;;;;;;;;;;17.30;52.50;;;;;;5047165;28;20063;-78
2022/09/25 13:21:36;;;;;;;;;;;17.40;51.80;;;;;;5006529;28;19928;-78
2022/09/25 13:24:07;;;;;;;;;;;17.40;52.40;;;;;;5018608;28;20018;-78
2022/09/25 13:26:42;;;;;;;;;;;17.50;51.00;;;;;;5009266;28;19932;-78
2022/09/25 13:29:37;;;;;;;;;;;17.50;51.30;;;;;;5018725;28;20462;-78
2022/09/25 13:32:03;;;;;;;;;;;17.50;49.90;;;;;;5025143;28;19999;-79
2022/09/25 13:34:32;;;;;;;;;;;17.40;49.30;;;;;;5033944;28;20410;-78
2022/09/25 13:37:02;;;;;;;;;;;17.50;48.70;;;;;;5025479;28;19917;-79
2022/09/25 13:42:23;;;;;;;;;;;17.40;48.40;;;;;;5034972;28;20052;-79
2022/09/25 13:44:55;;;;;;;;;;;17.20;49.90;;;;;;5023548;28;20295;-78
2022/09/25 13:47:20;;;;;;;;;;;17.20;49.10;;;;;;5031351;28;20020;-78
2022/09/25 13:49:53;;;;;;;;;;;17.10;49.50;;;;;;5030808;28;20015;-78
2022/09/25 13:52:29;;;;;;;;;;;17.10;50.10;;;;;;5037139;28;19920;-78
2022/09/25 13:55:12;;;;;;;;;;;17.10;49.30;;;;;;5034750;28;19965;-77
2022/09/25 13:57:58;;;;;;;;;;;17.10;49.80;;;;;;5046947;28;19936;-78
2022/09/25 14:00:32;;;;;;;;;;;17.00;51.30;;;;;;5031617;28;19999;-79
2022/09/25 14:03:01;;;;;;;;;;;17.20;50.20;;;;;;5018234;28;19998;-78
2022/09/25 14:05:34;;;;;;;;;;;17.40;48.60;;;;;;5010418;28;20285;-77
2022/09/25 14:08:02;;;;;;;;;;;17.40;48.90;;;;;;5037216;28;20364;-78
2022/09/25 14:10:28;;;;;;;;;;;17.30;48.90;;;;;;5020667;28;19919;-78
2022/09/25 14:12:53;;;;;;;;;;;17.10;49.60;;;;;;5045403;28;19909;-78
2022/09/25 14:15:20;;;;;;;;;;;17.00;50.90;;;;;;5035419;28;20015;-78
2022/09/25 14:17:46;;;;;;;;;;;16.90;50.60;;;;;;5034965;28;19913;-78
2022/09/25 14:20:41;;;;;;;;;;;16.80;50.30;;;;;;5018120;28;19909;-78
2022/09/25 14:23:32;;;;;;;;;;;16.80;50.60;;;;;;5024394;28;19912;-78
2022/09/25 14:26:16;;;;;;;;;;;16.60;51.80;;;;;;5041102;28;20091;-78
2022/09/25 14:28:44;;;;;;;;;;;16.80;50.90;;;;;;5025934;28;19909;-78
2022/09/25 14:31:27;;;;;;;;;;;16.90;50.30;;;;;;5016217;28;20019;-77
2022/09/25 14:33:53;;;;;;;;;;;16.90;50.50;;;;;;5043641;23;19939;-80
2022/09/25 14:36:25;;;;;;;;;;;16.90;51.10;;;;;;5036915;28;19917;-79
2022/09/25 14:39:03;;;;;;;;;;;16.90;50.80;;;;;;5042937;28;19953;-80
2022/09/25 14:41:34;;;;;;;;;;;17.00;51.10;;;;;;5057072;28;19980;-79
2022/09/25 14:44:18;;;;;;;;;;;17.10;50.70;;;;;;5064282;28;19923;-81
2022/09/25 14:46:47;;;;;;;;;;;16.90;51.40;;;;;;5041368;28;19909;-80